Ireland METAR reports

 

EIDW - Dublin Airport, Ireland
Distance from station: WNW 13km
Updated: 07/08/2020 04:00
Partly cloudy
Partly cloudy
 Wind from SE
Wind: SE 9 km/h
Temperature: 15°C
Dew Point: 13°C
Humidity: 88%
Barometer: 1015 hPa
Clouds: Partly cloudy
Visibility: 10 km
Cloud details: Few Clouds 457 m
Partly cloudy 2743 m
2020/08/07 03:00 EIDW 070300Z 13005KT 9999 FEW015 SCT090 15/13 Q1015 NOSIG
EIME - Casement (mil), Ireland
Distance from station: WSW 26km
Updated: 07/08/2020 04:00
Partly cloudy
Partly cloudy
 Wind from varies
Wind: varies 6 km/h
Temperature: 15°C
Dew Point: 12°C
Humidity: 82%
Barometer: 1015 hPa
Clouds: Partly cloudy
Visibility: 10 km
Cloud details: Few Clouds 305 m
Partly cloudy 2438 m
2020/08/07 03:00 EIME 070300Z VRB03KT 9999 FEW010 SCT080 15/12 Q1015
 
EGAC - Belfast Harbour, United Kingdom
Distance from station: N 140km
Updated: 07/08/2020 03:50
Overcast
Overcast
 Wind from S
Wind: S 11 km/h
Temperature: 17°C
Dew Point: 14°C
Humidity: 83%
Barometer: 1014 hPa
Clouds: Overcast
Visibility: 10 km
Cloud details: Overcast 1463 m
2020/08/07 02:50 EGAC 070250Z AUTO 19006KT 9999 OVC048/// 17/14 Q1014
EGAA - Belfast/Aldergro, United Kingdom
Distance from station: N 141km
Updated: 07/08/2020 03:50
Overcast
Overcast
 Wind from S
Wind: S 15 km/h
Temperature: 17°C
Dew Point: 15°C
Humidity: 88%
Barometer: 1014 hPa
Clouds: Overcast
Visibility: 10 km
Cloud details: Overcast 1372 m
2020/08/07 02:50 EGAA 070250Z 18008KT 9999 OVC045 17/15 Q1014
 
EIWF - Waterford Arpt, Ireland
Distance from station: SSW 148km
Updated: 06/08/2020 21:30
NOT Current
Mostly cloudy
Mostly cloudy
 Wind from SSW
Wind: SSW 13 km/h
Temperature: 16°C
Dew Point: 15°C
Humidity: 94%
Barometer: 1015 hPa
Clouds: Mostly cloudy
Visibility: 10 km
Cloud details: Few Clouds 610 m
Mostly cloudy 1219 m
2020/08/06 20:30 EIWF 062030Z 20007KT 9999 FEW020 BKN040 16/15 Q1015
EIKN - Connaught Apt, Ireland
Distance from station: WNW 191km
Updated: 06/08/2020 09:00
NOT Current
Partly cloudy
Partly cloudy
 Wind from SE
Wind: SE 19 km/h
Temperature: 14°C
Dew Point: 13°C
Humidity: 94%
Barometer: 1011 hPa
Clouds: Partly cloudy
Visibility: 10 km
Cloud details: Partly cloudy 183 m
Partly cloudy 549 m
2020/08/06 08:00 EIKN 060800Z 14010KT 100V180 9999 SCT006 SCT018 14/13 Q1011 NOSIG
 
EISG - Sligo Arpt, Ireland
Distance from station: WNW 195km
Updated: 06/08/2020 20:00
NOT Current
Mostly cloudy
Mostly cloudy
 Wind from SSW
Wind: SSW 9 km/h
Temperature: 18°C
Dew Point: 15°C
Humidity: 83%
Barometer: 1010 hPa
Clouds: Mostly cloudy
Visibility: 10 km
Cloud details: Few Clouds 457 m
Partly cloudy 1402 m
Mostly cloudy 1676 m
2020/08/06 19:00 EISG 061900Z 21005KT 170V240 9999 FEW015 SCT046 BKN055 18/15 Q1010
EGAE - Eglinton/Londond, United Kingdom
Distance from station: NNW 198km
Updated: 06/08/2020 20:20
NOT Current
Partly cloudy
Partly cloudy
 Wind from S
Wind: S 26 km/h
Temperature: 20°C
Dew Point: 17°C
Humidity: 83%
Barometer: 1011 hPa
Clouds: Partly cloudy
Visibility: 10 km
Cloud details: Few Clouds 610 m
Partly cloudy 1280 m
2020/08/06 19:20 EGAE 061920Z 18014KT 9999 FEW020 SCT042 20/17 Q1011
 
EINN - Shannon Airport, Ireland
Distance from station: WSW 204km
Updated: 07/08/2020 04:00
Light rain, Mostly cloudy
Light rain, Mostly cloudy
 Wind from SE
Wind: SE 15 km/h
Temperature: 17°C
Dew Point: 16°C
Humidity: 94%
Barometer: 1012 hPa
Summary: Light rain
Clouds: Mostly cloudy
Visibility: 10 km
Cloud details: Few Clouds 305 m
Mostly cloudy 1829 m
Mostly cloudy 3048 m
2020/08/07 03:00 EINN 070300Z 14008KT 9999 -RA FEW010 BKN060 BKN100 17/16 Q1012 NOSIG
EICK - Cork Arpt/Corcai, Ireland
Distance from station: SW 234km
Updated: 07/08/2020 04:00
Light rain, Drizzle, Fog, Overcast
Light rain, Drizzle, Fog, Overcast
 Wind from S
Wind: S 17 km/h
Temperature: 16°C
Dew Point: 16°C
Humidity: 100%
Barometer: 1014 hPa
Summary: Light rain, Drizzle, Fog
Clouds: Overcast
Visibility: 0 km
Cloud details: Overcast 30 m
2020/08/07 03:00 EICK 070300Z 18009KT 0100 R16/0550N R34/0500N -RADZ FG OVC001 16/16 Q1014 NOSIG